Taza Mas — WCY7704 — position and weather

sailwx.info

Track history (hours):
 
Tides and Currents Weather Stations Pressure Air Temp Water Temp Dewpoint Dewpoint Depression Visibility Wind Speed Wind Dir Waves Ship Positions

Taza Mas

Owner: TAZA MAS INC, FORT WORTH, TX. More information available from US FCC via Universal Licensing System and Coast Guard Vessel Documentation Center.

Last reported at 2015-May-08 20:17 UTC. Time now 2015-May-24 19:23 UTC.
Position N 18°24' W 064°37'.
Warning: this ship's position is 15 days out of date.

Length 560 m; draft 16.1 m.

Type: Dredging. MMSI: 338046997.

Date/timePositionNaut miles runAvg speedWind from/ knotsBaromVisibWave heightAir tempDewpointWater temp
2015-May-08 20:17N 18°24' W 064°37'10 5.8
2015-May-08 18:29N 18°26' W 064°27'4 0.1
2015-May-07 13:07N 18°26' W 064°30'6 8.5
2015-May-07 12:26N 18°22' W 064°35'0 0.1
2015-May-07 11:31N 18°22' W 064°35'0 0.0
2015-May-07 10:32N 18°22' W 064°35'0 0.0
2015-May-07 09:32N 18°22' W 064°35'0 0.0
2015-May-07 08:33N 18°22' W 064°35'0 0.0
2015-May-07 07:33N 18°22' W 064°35'0 0.0
2015-May-07 06:33N 18°22' W 064°35'0 0.0
2015-May-07 05:33N 18°22' W 064°35'0 0.0
2015-May-07 04:33N 18°22' W 064°35'0 0.0
2015-May-07 03:30N 18°22' W 064°35'0 0.0
2015-May-07 02:31N 18°22' W 064°35'0 0.0
2015-May-07 01:27N 18°22' W 064°35'0 0.0
2015-May-07 00:30N 18°22' W 064°35'0 0.0
2015-May-06 23:32N 18°22' W 064°35'0 0.0
2015-May-06 22:33N 18°22' W 064°35'0 0.0
2015-May-06 21:21N 18°22' W 064°35'11 0.3
2015-May-05 14:10N 18°26' W 064°45'0 0.0
2015-May-05 13:23N 18°26' W 064°45'0 0.0
2015-May-05 12:33N 18°26' W 064°45'0 0.0
2015-May-05 11:17N 18°26' W 064°45'0 0.0
2015-May-05 09:33N 18°26' W 064°45'0 0.0
2015-May-05 08:31N 18°26' W 064°45'0 0.0
2015-May-05 07:31N 18°26' W 064°45'0 0.0
2015-May-05 06:33N 18°26' W 064°45'0 0.0
2015-May-05 05:24N 18°26' W 064°45'0 0.0
2015-May-05 04:33N 18°26' W 064°45'0 0.0
2015-May-05 03:33N 18°26' W 064°45'0 0.0
2015-May-05 02:34N 18°26' W 064°45'0 0.0
2015-May-05 01:31N 18°26' W 064°45'0 0.0
2015-May-04 22:29N 18°26' W 064°45'0 0.0
2015-May-04 21:33N 18°26' W 064°45'0 0.0
2015-May-04 20:25N 18°26' W 064°45'0 0.0
2015-May-04 19:33N 18°26' W 064°45'0 0.0
2015-May-04 17:18N 18°26' W 064°45'2 3.0
2015-May-04 16:32N 18°26' W 064°43'3 1.4
2015-May-04 14:14N 18°26' W 064°40'0 0.0
2015-May-04 10:14N 18°26' W 064°40'0 0.0
2015-May-04 09:26N 18°26' W 064°40'0 0.0
2015-May-04 08:20N 18°26' W 064°40'0 0.0
2015-May-04 07:33N 18°26' W 064°40'0 0.0
2015-May-04 06:23N 18°26' W 064°40'0 0.0
2015-May-04 05:33N 18°26' W 064°40'0 0.0
2015-May-04 04:27N 18°26' W 064°40'0 0.0
2015-May-04 03:32N 18°26' W 064°40'0 0.0
2015-May-04 02:09N 18°26' W 064°40'0 0.0
2015-May-04 01:27N 18°26' W 064°40'0 0.0
2015-May-04 00:31N 18°26' W 064°40'0 0.0
2015-May-03 23:32N 18°26' W 064°40'0 0.0
2015-May-03 22:32N 18°26' W 064°40'2 1.7
2015-May-03 21:27N 18°25' W 064°41'3 3.3
2015-May-03 20:31N 18°23' W 064°44'  
2015-Apr-29 16:22N 18°20' W 064°49'1 1.6
2015-Apr-29 15:33N 18°20' W 064°48'0 0.0
2015-Apr-29 14:33N 18°20' W 064°48'0 0.0
2015-Apr-29 13:32N 18°20' W 064°48'0 0.0
2015-Apr-29 12:30N 18°20' W 064°48'0 0.0
2015-Apr-29 11:33N 18°20' W 064°48'0 0.0
2015-Apr-29 10:32N 18°20' W 064°48'0 0.0
2015-Apr-29 09:33N 18°20' W 064°48'0 0.0
2015-Apr-29 08:32N 18°20' W 064°48'0 0.0
2015-Apr-29 07:33N 18°20' W 064°48'0 0.0
2015-Apr-29 06:33N 18°20' W 064°48'0 0.0
2015-Apr-29 05:33N 18°20' W 064°48'0 0.0
2015-Apr-29 04:33N 18°20' W 064°48'0 0.0
2015-Apr-29 03:31N 18°20' W 064°48'0 0.0
2015-Apr-29 02:33N 18°20' W 064°48'0 0.0
2015-Apr-29 01:32N 18°20' W 064°48'0 0.0
2015-Apr-29 00:33N 18°20' W 064°48'0 0.0
2015-Apr-28 23:32N 18°20' W 064°48'0 0.0
2015-Apr-28 22:33N 18°20' W 064°48'0 0.0
2015-Apr-28 21:33N 18°20' W 064°48'0 0.0
2015-Apr-28 20:32N 18°20' W 064°48'  
Track history (hours):
 
Tides and Currents Weather Stations Pressure Air Temp Water Temp Dewpoint Dewpoint Depression Visibility Wind Speed Wind Dir Waves Ship Positions

Taza Mas

Owner: TAZA MAS INC, FORT WORTH, TX. More information available from US FCC via Universal Licensing System and Coast Guard Vessel Documentation Center.

Last reported at 2015-May-08 20:17 UTC. Time now 2015-May-24 19:23 UTC.
Position N 18°24' W 064°37'.
Warning: this ship's position is 15 days out of date.

Length 560 m; draft 16.1 m.

Type: Dredging. MMSI: 338046997.

Date/timePositionNaut miles runAvg speedWind from/ knotsBaromVisibWave heightAir tempDewpointWater temp
2015-May-08 20:17N 18°24' W 064°37'10 5.8
2015-May-08 18:29N 18°26' W 064°27'4 0.1
2015-May-07 13:07N 18°26' W 064°30'6 8.5
2015-May-07 12:26N 18°22' W 064°35'0 0.1
2015-May-07 11:31N 18°22' W 064°35'0 0.0
2015-May-07 10:32N 18°22' W 064°35'0 0.0
2015-May-07 09:32N 18°22' W 064°35'0 0.0
2015-May-07 08:33N 18°22' W 064°35'0 0.0
2015-May-07 07:33N 18°22' W 064°35'0 0.0
2015-May-07 06:33N 18°22' W 064°35'0 0.0
2015-May-07 05:33N 18°22' W 064°35'0 0.0
2015-May-07 04:33N 18°22' W 064°35'0 0.0
2015-May-07 03:30N 18°22' W 064°35'0 0.0
2015-May-07 02:31N 18°22' W 064°35'0 0.0
2015-May-07 01:27N 18°22' W 064°35'0 0.0
2015-May-07 00:30N 18°22' W 064°35'0 0.0
2015-May-06 23:32N 18°22' W 064°35'0 0.0
2015-May-06 22:33N 18°22' W 064°35'0 0.0
2015-May-06 21:21N 18°22' W 064°35'11 0.3
2015-May-05 14:10N 18°26' W 064°45'0 0.0
2015-May-05 13:23N 18°26' W 064°45'0 0.0
2015-May-05 12:33N 18°26' W 064°45'0 0.0
2015-May-05 11:17N 18°26' W 064°45'0 0.0
2015-May-05 09:33N 18°26' W 064°45'0 0.0
2015-May-05 08:31N 18°26' W 064°45'0 0.0
2015-May-05 07:31N 18°26' W 064°45'0 0.0
2015-May-05 06:33N 18°26' W 064°45'0 0.0
2015-May-05 05:24N 18°26' W 064°45'0 0.0
2015-May-05 04:33N 18°26' W 064°45'0 0.0
2015-May-05 03:33N 18°26' W 064°45'0 0.0
2015-May-05 02:34N 18°26' W 064°45'0 0.0
2015-May-05 01:31N 18°26' W 064°45'0 0.0
2015-May-04 22:29N 18°26' W 064°45'0 0.0
2015-May-04 21:33N 18°26' W 064°45'0 0.0
2015-May-04 20:25N 18°26' W 064°45'0 0.0
2015-May-04 19:33N 18°26' W 064°45'0 0.0
2015-May-04 17:18N 18°26' W 064°45'2 3.0
2015-May-04 16:32N 18°26' W 064°43'3 1.4
2015-May-04 14:14N 18°26' W 064°40'0 0.0
2015-May-04 10:14N 18°26' W 064°40'0 0.0
2015-May-04 09:26N 18°26' W 064°40'0 0.0
2015-May-04 08:20N 18°26' W 064°40'0 0.0
2015-May-04 07:33N 18°26' W 064°40'0 0.0
2015-May-04 06:23N 18°26' W 064°40'0 0.0
2015-May-04 05:33N 18°26' W 064°40'0 0.0
2015-May-04 04:27N 18°26' W 064°40'0 0.0
2015-May-04 03:32N 18°26' W 064°40'0 0.0
2015-May-04 02:09N 18°26' W 064°40'0 0.0
2015-May-04 01:27N 18°26' W 064°40'0 0.0
2015-May-04 00:31N 18°26' W 064°40'0 0.0
2015-May-03 23:32N 18°26' W 064°40'0 0.0
2015-May-03 22:32N 18°26' W 064°40'2 1.7
2015-May-03 21:27N 18°25' W 064°41'3 3.3
2015-May-03 20:31N 18°23' W 064°44'  
2015-Apr-29 16:22N 18°20' W 064°49'1 1.6
2015-Apr-29 15:33N 18°20' W 064°48'0 0.0
2015-Apr-29 14:33N 18°20' W 064°48'0 0.0
2015-Apr-29 13:32N 18°20' W 064°48'0 0.0
2015-Apr-29 12:30N 18°20' W 064°48'0 0.0
2015-Apr-29 11:33N 18°20' W 064°48'0 0.0
2015-Apr-29 10:32N 18°20' W 064°48'0 0.0
2015-Apr-29 09:33N 18°20' W 064°48'0 0.0
2015-Apr-29 08:32N 18°20' W 064°48'0 0.0
2015-Apr-29 07:33N 18°20' W 064°48'0 0.0
2015-Apr-29 06:33N 18°20' W 064°48'0 0.0
2015-Apr-29 05:33N 18°20' W 064°48'0 0.0
2015-Apr-29 04:33N 18°20' W 064°48'0 0.0
2015-Apr-29 03:31N 18°20' W 064°48'0 0.0
2015-Apr-29 02:33N 18°20' W 064°48'0 0.0
2015-Apr-29 01:32N 18°20' W 064°48'0 0.0
2015-Apr-29 00:33N 18°20' W 064°48'0 0.0
2015-Apr-28 23:32N 18°20' W 064°48'0 0.0
2015-Apr-28 22:33N 18°20' W 064°48'0 0.0
2015-Apr-28 21:33N 18°20' W 064°48'0 0.0
2015-Apr-28 20:32N 18°20' W 064°48'  

Dump ship's entire track history